Portland, Oregon
Traffic Map
Current Weather Conditions
Portland, Oregon
Overcast Light Rain
Overcast
54°
Feels Like: 54°
Wind Chill: 54° Ceiling: 4500
Heat Index: 54° Visibility: 10mi
Dew Point: 50° Wind: 12mph
Humidity: 86% Direction: 100° (E)
Pressure: 29.6in Gusts: 0mph
Raw Report DataKPDX 251353Z 10010KT 10SM -RA FEW020 BKN045 OVC060 12/10 A2960 RMK AO2 WSHFT 1240 RAB44 SLP023 P0000 T01220100
Traffic Incident Summary
Active as of:
Severity:
Category:
InformationThere was an issue retrieving the traffic information for this location. Please try a different location or try again shortly.
Advertisements
Track Severe Weather on mobile